createdAt,value
2022-12-28T00:00:32.046Z,101047.28
2022-12-28T00:05:33.507Z,101038.44
2022-12-28T00:11:08.478Z,101034.91
2022-12-28T00:15:56.743Z,101039.41
2022-12-28T00:20:59.529Z,101038.41
2022-12-28T00:26:12.025Z,101044.41
2022-12-28T00:31:13.620Z,101033.81
2022-12-28T00:36:15.788Z,101031.47
2022-12-28T00:41:17.281Z,101023.63
2022-12-28T00:46:18.685Z,101021.00
2022-12-28T00:51:21.021Z,101031.28
2022-12-28T00:56:23.293Z,101019.94
2022-12-28T01:01:25.837Z,101016.91
2022-12-28T01:06:28.740Z,101006.25
2022-12-28T01:11:31.077Z,100996.94
2022-12-28T01:16:35.646Z,100997.25
2022-12-28T01:21:37.294Z,100990.09
2022-12-28T01:26:38.709Z,100985.50
2022-12-28T01:31:40.153Z,100983.50
2022-12-28T01:36:41.719Z,100979.00
2022-12-28T01:41:43.261Z,100972.41
2022-12-28T01:46:51.172Z,100969.59
2022-12-28T01:52:10.108Z,100974.41
2022-12-28T01:57:12.941Z,100967.69
2022-12-28T02:02:15.178Z,100961.47
2022-12-28T02:07:24.789Z,100963.59
2022-12-28T02:12:26.202Z,100948.44
2022-12-28T02:17:28.076Z,100926.16
2022-12-28T02:22:52.504Z,100918.16
2022-12-28T02:28:08.192Z,100910.00
2022-12-28T02:33:43.089Z,100909.13
2022-12-28T02:38:54.081Z,100895.25
2022-12-28T02:43:55.895Z,100889.31
2022-12-28T02:49:16.128Z,100896.81
2022-12-28T02:55:15.986Z,100883.97
2022-12-28T03:00:25.346Z,100888.09
2022-12-28T03:06:30.414Z,100879.00
2022-12-28T03:11:43.560Z,100872.69
2022-12-28T03:17:08.733Z,100865.94
2022-12-28T03:22:30.457Z,100837.38
2022-12-28T03:27:52.583Z,100845.47
2022-12-28T03:32:55.168Z,100831.94
2022-12-28T03:38:00.832Z,100836.78
2022-12-28T03:43:29.229Z,100824.94
2022-12-28T03:48:34.537Z,100818.25
2022-12-28T03:53:43.250Z,100812.56
2022-12-28T03:58:45.402Z,100817.63
2022-12-28T04:03:47.136Z,100811.06
2022-12-28T04:08:48.643Z,100810.31
2022-12-28T04:13:50.102Z,100795.53
2022-12-28T04:18:51.585Z,100790.31
2022-12-28T04:23:53.095Z,100775.41
2022-12-28T04:28:54.801Z,100771.53
2022-12-28T04:33:59.533Z,100760.38
2022-12-28T04:39:01.087Z,100764.22
2022-12-28T04:44:02.653Z,100756.09
2022-12-28T04:49:04.838Z,100742.88
2022-12-28T04:54:07.616Z,100734.88
2022-12-28T04:59:09.087Z,100737.31
2022-12-28T05:04:10.548Z,100727.13
2022-12-28T05:09:11.946Z,100716.38
2022-12-28T05:14:13.515Z,100700.91
2022-12-28T05:19:15.244Z,100692.63
2022-12-28T05:24:16.787Z,100683.28
2022-12-28T05:29:18.238Z,100677.34
2022-12-28T05:34:19.688Z,100680.41
2022-12-28T05:39:21.303Z,100672.41
2022-12-28T05:44:22.778Z,100663.38
2022-12-28T05:49:24.285Z,100674.03
2022-12-28T05:54:25.737Z,100669.56
2022-12-28T05:59:27.176Z,100670.19
2022-12-28T06:04:28.656Z,100664.88
2022-12-28T06:09:30.205Z,100645.41
2022-12-28T06:14:31.684Z,100646.44
2022-12-28T06:19:33.130Z,100640.75
2022-12-28T06:24:34.573Z,100646.63
2022-12-28T06:29:35.992Z,100651.88
2022-12-28T06:34:37.418Z,100648.16
2022-12-28T06:39:38.925Z,100657.84
2022-12-28T06:44:44.589Z,100671.13
2022-12-28T06:49:46.310Z,100666.22
2022-12-28T06:54:47.713Z,100663.28
2022-12-28T06:59:49.137Z,100663.09
2022-12-28T07:04:50.548Z,100642.75
2022-12-28T07:09:51.958Z,100643.88
2022-12-28T07:14:53.369Z,100639.69
2022-12-28T07:19:55.602Z,100641.06
2022-12-28T07:24:57.047Z,100637.22
2022-12-28T07:29:58.493Z,100634.09
2022-12-28T07:34:59.905Z,100636.91
2022-12-28T07:40:01.357Z,100629.47
2022-12-28T07:45:02.963Z,100636.78
2022-12-28T07:50:04.700Z,100621.91
2022-12-28T07:55:06.373Z,100626.63
2022-12-28T08:00:08.504Z,100628.09
2022-12-28T08:05:09.974Z,100623.25
2022-12-28T08:10:11.404Z,100632.72
2022-12-28T08:15:12.813Z,100632.59
2022-12-28T08:20:14.297Z,100651.13
2022-12-28T08:25:15.933Z,100635.66
2022-12-28T08:30:17.429Z,100629.72
2022-12-28T08:35:18.930Z,100620.38
2022-12-28T08:40:20.402Z,100617.31
2022-12-28T08:45:21.886Z,100603.00
2022-12-28T08:50:29.555Z,100604.22
2022-12-28T08:55:32.922Z,100589.50
2022-12-28T09:00:34.320Z,100598.09
2022-12-28T09:05:40.031Z,100586.19
2022-12-28T09:10:41.577Z,100588.13
2022-12-28T09:15:43.082Z,100575.28
2022-12-28T09:20:47.840Z,100578.75
2022-12-28T09:25:49.618Z,100568.25
2022-12-28T09:30:51.149Z,100574.94
2022-12-28T09:35:57.609Z,100551.81
2022-12-28T09:40:59.151Z,100552.13
2022-12-28T09:46:00.638Z,100531.19
2022-12-28T09:51:02.729Z,100530.13
2022-12-28T09:56:28.535Z,100509.81
2022-12-28T10:01:30.069Z,100526.38
2022-12-28T10:06:35.379Z,100518.16
2022-12-28T10:11:41.898Z,100513.63
2022-12-28T10:16:48.512Z,100496.00
2022-12-28T10:22:00.287Z,100485.91
2022-12-28T10:27:05.326Z,100474.91
2022-12-28T10:32:12.709Z,100467.63
2022-12-28T10:37:16.847Z,100453.28
2022-12-28T10:42:32.162Z,100455.41
2022-12-28T10:47:41.969Z,100449.66
2022-12-28T10:52:43.687Z,100431.84
2022-12-28T10:58:18.698Z,100438.78
2022-12-28T11:03:18.316Z,100410.81
2022-12-28T11:08:19.783Z,100411.31
2022-12-28T11:13:22.092Z,100409.53
2022-12-28T11:18:24.139Z,100404.94
2022-12-28T11:23:31.541Z,100401.38
2022-12-28T11:28:33.027Z,100387.06
2022-12-28T11:33:48.267Z,100368.13
2022-12-28T11:38:51.845Z,100363.25
2022-12-28T11:43:57.860Z,100344.38
2022-12-28T11:49:26.803Z,100333.06
2022-12-28T11:54:40.056Z,100316.13
2022-12-28T11:59:41.490Z,100306.78
2022-12-28T12:04:45.018Z,100292.16
2022-12-28T12:09:48.966Z,100296.09
2022-12-28T12:14:57.878Z,100277.34
2022-12-28T12:20:05.179Z,100272.34
2022-12-28T12:25:32.308Z,100271.59
2022-12-28T12:30:35.321Z,100261.88
2022-12-28T12:36:22.443Z,100254.59
2022-12-28T12:41:46.082Z,100261.50
2022-12-28T12:47:35.295Z,100252.38
2022-12-28T12:52:53.242Z,100238.41
2022-12-28T12:58:08.507Z,100246.59
2022-12-28T13:03:16.669Z,100227.25
2022-12-28T13:08:42.604Z,100217.81
2022-12-28T13:13:47.161Z,100217.06
2022-12-28T13:19:00.345Z,100220.91
2022-12-28T13:24:01.807Z,100210.34
2022-12-28T13:29:09.797Z,100201.97
2022-12-28T13:34:16.590Z,100199.09
2022-12-28T13:39:20.284Z,100191.28
2022-12-28T13:44:38.445Z,100182.50
2022-12-28T13:49:52.079Z,100181.66
2022-12-28T13:54:57.667Z,100172.84
2022-12-28T13:59:59.465Z,100175.13
2022-12-28T14:05:01.591Z,100186.78
2022-12-28T14:10:04.367Z,100178.44
2022-12-28T14:15:07.727Z,100180.78
2022-12-28T14:20:10.295Z,100171.50
2022-12-28T14:25:17.224Z,100168.78
2022-12-28T14:30:31.217Z,100163.41
2022-12-28T14:35:32.714Z,100173.13
2022-12-28T14:40:36.436Z,100155.19
2022-12-28T14:46:07.073Z,100163.81
2022-12-28T14:51:17.344Z,100148.03
2022-12-28T14:56:19.569Z,100141.31
2022-12-28T15:01:22.397Z,100139.84
2022-12-28T15:06:29.581Z,100122.66
2022-12-28T15:11:31.299Z,100144.34
2022-12-28T15:16:32.820Z,100153.00
2022-12-28T15:21:34.399Z,100163.97
2022-12-28T15:26:35.812Z,100160.28
2022-12-28T15:31:37.486Z,100149.72
2022-12-28T15:36:38.983Z,100154.91
2022-12-28T15:41:46.457Z,100149.72
2022-12-28T15:46:51.550Z,100153.94
2022-12-28T15:51:53.116Z,100149.47
2022-12-28T15:56:55.691Z,100148.22
2022-12-28T16:01:57.367Z,100156.25
2022-12-28T16:06:58.946Z,100146.97
2022-12-28T16:12:00.430Z,100156.25
2022-12-28T16:17:01.921Z,100159.06
2022-12-28T16:22:03.333Z,100155.84
2022-12-28T16:27:05.149Z,100155.41
2022-12-28T16:32:06.734Z,100156.88
2022-12-28T16:37:10.133Z,100158.38
2022-12-28T16:42:11.838Z,100160.75
2022-12-28T16:47:13.255Z,100156.94
2022-12-28T16:52:14.813Z,100150.50
2022-12-28T16:57:16.234Z,100138.63
2022-12-28T17:02:17.848Z,100137.34
2022-12-28T17:07:19.387Z,100131.78
2022-12-28T17:12:20.954Z,100139.28
2022-12-28T17:17:22.398Z,100139.50
2022-12-28T17:22:23.943Z,100141.47
2022-12-28T17:27:25.482Z,100129.84
2022-12-28T17:32:27.243Z,100140.19
2022-12-28T17:37:28.705Z,100126.75
2022-12-28T17:42:30.121Z,100118.47
2022-12-28T17:47:31.625Z,100125.81
2022-12-28T17:52:33.071Z,100128.84
2022-12-28T17:57:38.623Z,100131.19
2022-12-28T18:02:40.586Z,100125.63
2022-12-28T18:07:42.134Z,100120.91
2022-12-28T18:12:43.681Z,100120.44
2022-12-28T18:17:45.176Z,100119.59
2022-12-28T18:22:46.648Z,100125.63
2022-12-28T18:27:48.094Z,100127.16
2022-12-28T18:32:49.805Z,100116.25
2022-12-28T18:37:51.625Z,100113.78
2022-12-28T18:42:53.077Z,100109.75
2022-12-28T18:47:54.510Z,100103.59
2022-12-28T18:52:56.081Z,100100.72
2022-12-28T18:57:57.537Z,100103.75
2022-12-28T19:02:59.114Z,100101.31
2022-12-28T19:08:00.601Z,100103.06
2022-12-28T19:13:02.015Z,100093.81
2022-12-28T19:18:03.471Z,100090.88
2022-12-28T19:23:04.912Z,100085.84
2022-12-28T19:28:07.134Z,100079.47
2022-12-28T19:33:08.547Z,100083.03
2022-12-28T19:38:09.956Z,100081.88
2022-12-28T19:43:11.360Z,100085.41
2022-12-28T19:48:12.859Z,100084.13
2022-12-28T19:53:14.658Z,100085.19
2022-12-28T19:58:16.116Z,100074.88
2022-12-28T20:03:18.281Z,100065.81
2022-12-28T20:08:19.741Z,100064.97
2022-12-28T20:13:21.171Z,100059.38
2022-12-28T20:18:22.861Z,100052.59
2022-12-28T20:23:24.280Z,100043.13
2022-12-28T20:28:25.763Z,100050.66
2022-12-28T20:33:27.200Z,100056.47
2022-12-28T20:38:31.730Z,100041.72
2022-12-28T20:43:33.942Z,100052.88
2022-12-28T20:48:35.351Z,100045.59
2022-12-28T20:53:36.761Z,100053.38
2022-12-28T20:58:39.586Z,100048.63
2022-12-28T21:03:41.293Z,100039.16
2022-12-28T21:08:42.741Z,100036.69
2022-12-28T21:13:45.097Z,100034.63
2022-12-28T21:18:46.748Z,100041.13
2022-12-28T21:23:48.580Z,100027.88
2022-12-28T21:28:51.033Z,100042.31
2022-12-28T21:33:56.342Z,100037.88
2022-12-28T21:38:57.751Z,100029.03
2022-12-28T21:43:59.202Z,100017.44
2022-12-28T21:49:03.426Z,100015.59
2022-12-28T21:54:12.507Z,100009.03
2022-12-28T21:59:14.288Z,100007.31
2022-12-28T22:04:37.694Z,99998.06
2022-12-28T22:09:58.150Z,99986.75
2022-12-28T22:15:19.700Z,99993.25
2022-12-28T22:20:22.191Z,100006.13
2022-12-28T22:25:24.946Z,99987.78
2022-12-28T22:30:27.792Z,99998.84
2022-12-28T22:35:29.247Z,99987.50
2022-12-28T22:40:30.855Z,99990.28
2022-12-28T22:45:32.285Z,99983.22
2022-12-28T22:50:36.921Z,99962.94
2022-12-28T22:55:42.822Z,99968.72
2022-12-28T23:00:44.227Z,99969.50
2022-12-28T23:05:52.416Z,99963.47
2022-12-28T23:10:56.283Z,99959.28
2022-12-28T23:16:03.823Z,99960.16
2022-12-28T23:21:24.238Z,99945.53
2022-12-28T23:26:44.446Z,99949.72
2022-12-28T23:31:45.939Z,99926.19
2022-12-28T23:36:47.336Z,99927.25
2022-12-28T23:41:51.866Z,99925.66
2022-12-28T23:46:58.532Z,99917.28
2022-12-28T23:52:00.635Z,99899.53
2022-12-28T23:57:02.106Z,99900.72
